Time;durP1;ratioP1;P1;durP2;ratioP2;P2;SDS_P1;SDS_P2;PMS_P1;PMS_P2;Temp;Humidity;BMP_temperature;BMP_pressure;BME280_temperature;BME280_humidity;BME280_pressure;Samples;Min_cycle;Max_cycle;Signal;HPM_P1;HPM_P2
2022/11/07 00:01:00;;;;;;;8.73;3.95;;;11.00;99.90;;;;;;5053014;28;20123;-68
2022/11/07 00:03:26;;;;;;;9.50;4.25;;;11.00;99.90;;;;;;5068692;28;20111;-68
2022/11/07 00:05:53;;;;;;;8.75;4.55;;;11.10;99.90;;;;;;5069676;28;20510;-67
2022/11/07 00:08:19;;;;;;;8.00;4.00;;;11.10;99.90;;;;;;5053251;28;20124;-67
2022/11/07 00:10:45;;;;;;;10.07;4.35;;;11.10;99.90;;;;;;5051916;28;20033;-68
2022/11/07 00:13:10;;;;;;;9.65;4.05;;;11.10;99.90;;;;;;5037045;28;20099;-68
2022/11/07 00:15:36;;;;;;;6.63;3.80;;;11.10;99.90;;;;;;5041827;28;20061;-68
2022/11/07 00:18:02;;;;;;;10.43;4.05;;;11.10;99.90;;;;;;5033211;28;20033;-68
2022/11/07 00:20:27;;;;;;;9.30;4.18;;;11.20;99.90;;;;;;5033715;28;20037;-68
2022/11/07 00:22:53;;;;;;;11.98;4.05;;;11.20;99.90;;;;;;5042461;28;20044;-68
2022/11/07 00:25:18;;;;;;;9.05;3.97;;;11.20;99.90;;;;;;5052724;28;20068;-68
2022/11/07 00:27:44;;;;;;;10.27;4.30;;;11.10;99.90;;;;;;5052722;28;20390;-68
2022/11/07 00:30:11;;;;;;;10.48;4.55;;;11.20;99.90;;;;;;5069626;28;20041;-68
2022/11/07 00:32:36;;;;;;;8.88;4.07;;;11.20;99.90;;;;;;5069377;28;20454;-68
2022/11/07 00:35:02;;;;;;;9.05;3.53;;;11.30;99.90;;;;;;5070124;28;20083;-68
2022/11/07 00:37:28;;;;;;;11.68;4.28;;;11.30;99.90;;;;;;5052878;28;20037;-68
2022/11/07 00:39:53;;;;;;;10.10;4.30;;;11.30;99.90;;;;;;5052469;28;20043;-68
2022/11/07 00:42:19;;;;;;;12.00;4.18;;;11.30;99.90;;;;;;5051763;28;20454;-68
2022/11/07 00:44:44;;;;;;;8.18;3.83;;;11.30;99.90;;;;;;5053023;28;20409;-67
2022/11/07 00:47:10;;;;;;;8.27;3.97;;;11.40;99.90;;;;;;5052200;28;20044;-68
2022/11/07 00:49:35;;;;;;;7.35;3.60;;;11.40;99.90;;;;;;5053271;28;20136;-68
2022/11/07 00:52:01;;;;;;;9.15;4.10;;;11.40;99.90;;;;;;5052867;28;20091;-68
2022/11/07 00:54:26;;;;;;;5.50;2.83;;;11.40;99.90;;;;;;5051972;28;20037;-68
2022/11/07 00:56:52;;;;;;;9.52;3.50;;;11.40;99.90;;;;;;5069319;28;20111;-68
2022/11/07 00:59:18;;;;;;;7.85;3.10;;;11.40;99.90;;;;;;5052285;28;20036;-68
2022/11/07 01:01:43;;;;;;;8.38;3.75;;;11.40;99.90;;;;;;5052782;28;20036;-68
2022/11/07 01:06:56;;;;;;;11.38;3.83;;;11.50;99.90;;;;;;5068472;28;20072;-68
2022/11/07 01:09:21;;;;;;;8.40;3.30;;;11.50;99.90;;;;;;5069134;28;20076;-68
2022/11/07 01:11:48;;;;;;;8.77;3.85;;;11.50;99.90;;;;;;5052059;28;20095;-68
2022/11/07 01:14:16;;;;;;;5.93;3.22;;;11.50;99.90;;;;;;5035916;28;20041;-68
2022/11/07 01:16:42;;;;;;;7.70;3.15;;;11.50;99.90;;;;;;5052717;28;20044;-68
2022/11/07 01:19:08;;;;;;;9.18;3.35;;;11.50;99.90;;;;;;5050909;28;20044;-67
2022/11/07 01:21:37;;;;;;;7.07;2.83;;;11.60;99.90;;;;;;5052427;28;20048;-68
2022/11/07 01:24:02;;;;;;;8.25;3.65;;;11.70;99.90;;;;;;5052428;28;20045;-68
2022/11/07 01:26:28;;;;;;;10.18;3.30;;;11.70;99.90;;;;;;5052419;28;20041;-68
2022/11/07 01:28:54;;;;;;;6.63;2.60;;;11.60;99.90;;;;;;5052003;28;20044;-68
2022/11/07 01:31:20;;;;;;;10.85;3.20;;;11.60;99.90;;;;;;5052555;28;20044;-68
2022/11/07 01:33:45;;;;;;;8.10;3.38;;;11.70;99.90;;;;;;5051489;28;20516;-68
2022/11/07 01:36:14;;;;;;;7.22;2.90;;;11.70;99.90;;;;;;5052006;28;20041;-68
2022/11/07 01:38:43;;;;;;;6.88;2.95;;;11.70;99.90;;;;;;5035381;28;20036;-68
2022/11/07 01:41:21;;;;;;;10.18;3.28;;;11.70;99.90;;;;;;5051130;28;20047;-68
2022/11/07 01:44:00;;;;;;;10.50;3.70;;;11.80;99.90;;;;;;5068827;28;20485;-68
2022/11/07 01:46:32;;;;;;;11.55;3.47;;;11.70;99.90;;;;;;5051965;28;20087;-68
2022/11/07 01:49:09;;;;;;;9.68;3.15;;;11.70;99.90;;;;;;5066951;28;20041;-68
2022/11/07 01:51:49;;;;;;;13.52;4.47;;;11.70;99.90;;;;;;5051332;28;20497;-68
2022/11/07 01:54:20;;;;;;;8.10;3.05;;;11.80;99.90;;;;;;5068108;28;20041;-68
2022/11/07 01:56:47;;;;;;;9.88;3.30;;;11.70;99.90;;;;;;5051890;28;20044;-68
2022/11/07 01:59:16;;;;;;;8.15;2.92;;;11.70;99.90;;;;;;5051866;28;20044;-68
2022/11/07 02:01:42;;;;;;;7.75;3.38;;;11.80;99.90;;;;;;5051199;28;20036;-68
2022/11/07 02:04:09;;;;;;;10.98;3.08;;;11.70;99.90;;;;;;5051654;28;20103;-68
2022/11/07 02:06:44;;;;;;;7.50;2.92;;;11.70;99.90;;;;;;5067715;28;20079;-68
2022/11/07 02:09:10;;;;;;;7.65;3.00;;;11.80;99.90;;;;;;5050814;28;20095;-68
2022/11/07 02:11:36;;;;;;;7.60;3.47;;;11.70;99.90;;;;;;5051915;28;20382;-68
2022/11/07 02:14:01;;;;;;;8.60;2.85;;;11.70;99.90;;;;;;5051751;28;20051;-68
2022/11/07 02:16:27;;;;;;;8.25;2.92;;;11.80;99.90;;;;;;5051684;28;20077;-68
2022/11/07 02:18:54;;;;;;;7.78;3.33;;;11.70;99.90;;;;;;5051034;28;20485;-67
2022/11/07 02:21:39;;;;;;;10.52;3.97;;;11.70;99.90;;;;;;5068392;28;20043;-68
2022/11/07 02:24:11;;;;;;;11.82;3.75;;;11.60;99.90;;;;;;5051687;28;20547;-68
2022/11/07 02:26:38;;;;;;;11.50;4.25;;;11.70;99.90;;;;;;5068262;28;20047;-68
2022/11/07 02:29:07;;;;;;;12.35;3.80;;;11.60;99.90;;;;;;5050062;28;20040;-68
2022/11/07 02:31:33;;;;;;;7.60;2.70;;;11.60;99.90;;;;;;5068235;28;20560;-68
2022/11/07 02:33:58;;;;;;;10.43;3.50;;;11.60;99.90;;;;;;5067395;28;20120;-68
2022/11/07 02:36:24;;;;;;;8.60;3.70;;;11.70;99.90;;;;;;5068380;28;20111;-68
2022/11/07 02:38:57;;;;;;;11.13;4.28;;;11.60;99.90;;;;;;5051472;28;20041;-68
2022/11/07 02:41:31;;;;;;;7.78;3.58;;;11.60;99.90;;;;;;5051307;28;20037;-68
2022/11/07 02:44:01;;;;;;;9.68;3.25;;;11.60;99.90;;;;;;5050884;28;20101;-68
2022/11/07 02:46:28;;;;;;;11.55;3.17;;;11.70;99.90;;;;;;5068094;28;20045;-68
2022/11/07 02:48:59;;;;;;;9.52;3.30;;;11.70;99.90;;;;;;5068377;28;20397;-68
2022/11/07 02:51:25;;;;;;;8.82;2.97;;;11.80;99.90;;;;;;5068697;28;20045;-69
2022/11/07 02:53:51;;;;;;;8.60;3.35;;;11.80;99.90;;;;;;5071345;28;20060;-68
2022/11/07 02:56:17;;;;;;;9.95;3.65;;;11.70;99.90;;;;;;5055027;28;20041;-68
2022/11/07 02:58:43;;;;;;;10.82;3.40;;;11.70;99.90;;;;;;5055066;28;20029;-68
2022/11/07 03:01:09;;;;;;;8.82;3.58;;;11.70;99.90;;;;;;5054257;28;20036;-68
2022/11/07 03:03:40;;;;;;;12.00;3.95;;;11.80;99.90;;;;;;5054859;28;20463;-68
2022/11/07 03:06:08;;;;;;;13.57;3.30;;;11.70;99.90;;;;;;5055306;28;20503;-68
2022/11/07 03:08:34;;;;;;;9.00;3.35;;;11.70;99.90;;;;;;5070875;28;20115;-68
2022/11/07 03:11:00;;;;;;;9.77;3.03;;;11.80;99.90;;;;;;5054858;28;20501;-68
2022/11/07 03:13:25;;;;;;;8.80;3.15;;;11.70;99.90;;;;;;5054775;28;20083;-68
2022/11/07 03:15:51;;;;;;;8.52;3.42;;;11.70;99.90;;;;;;5054996;28;20076;-68
2022/11/07 03:18:17;;;;;;;10.23;3.50;;;11.80;99.90;;;;;;5070496;28;20044;-68
2022/11/07 03:20:43;;;;;;;10.05;3.42;;;11.70;99.90;;;;;;5054345;28;20434;-68
2022/11/07 03:23:09;;;;;;;9.23;3.50;;;11.70;99.90;;;;;;5054329;28;20086;-68
2022/11/07 03:25:34;;;;;;;11.85;3.28;;;11.70;99.90;;;;;;5054592;28;20060;-68
2022/11/07 03:28:00;;;;;;;8.80;3.13;;;11.70;99.90;;;;;;5036992;28;20456;-68
2022/11/07 03:30:25;;;;;;;10.15;3.10;;;11.70;99.90;;;;;;5054463;28;20041;-68
2022/11/07 03:32:52;;;;;;;10.82;3.10;;;11.70;99.90;;;;;;5037750;28;20040;-68
2022/11/07 03:35:18;;;;;;;6.50;2.83;;;11.60;99.90;;;;;;5051820;28;20032;-68
2022/11/07 03:37:45;;;;;;;9.18;3.33;;;11.60;99.90;;;;;;5053069;28;20100;-68
2022/11/07 03:40:11;;;;;;;7.97;2.90;;;11.60;99.90;;;;;;5037744;28;20040;-68
2022/11/07 03:42:38;;;;;;;10.13;3.08;;;11.60;99.90;;;;;;5052669;28;20400;-68
2022/11/07 03:45:05;;;;;;;10.52;3.22;;;11.70;99.90;;;;;;5063223;28;20045;-68
2022/11/07 03:47:36;;;;;;;9.95;3.28;;;11.60;99.90;;;;;;5034021;28;20051;-68
2022/11/07 03:50:03;;;;;;;9.43;3.47;;;11.60;99.90;;;;;;5049142;28;20040;-68
2022/11/07 03:52:29;;;;;;;12.70;3.13;;;11.50;99.90;;;;;;5054401;28;20068;-68
2022/11/07 03:54:54;;;;;;;7.30;3.35;;;11.60;99.90;;;;;;5054003;28;20033;-68
2022/11/07 03:57:20;;;;;;;10.80;3.60;;;11.60;99.90;;;;;;5037508;28;20095;-68
2022/11/07 03:59:45;;;;;;;7.05;2.67;;;11.50;99.90;;;;;;5054485;28;20489;-68
2022/11/07 04:02:11;;;;;;;8.88;3.17;;;11.60;99.90;;;;;;5038586;28;20041;-68
2022/11/07 04:04:37;;;;;;;10.45;3.83;;;11.50;99.90;;;;;;5033940;28;20405;-68
2022/11/07 04:07:02;;;;;;;8.88;2.42;;;11.50;99.90;;;;;;5033692;28;20037;-68
2022/11/07 04:09:28;;;;;;;12.82;3.38;;;11.60;99.90;;;;;;5033854;28;20124;-68
2022/11/07 04:17:22;;;;;;;11.15;3.78;;;11.60;99.90;;;;;;5047625;28;20400;-68
2022/11/07 04:19:53;;;;;;;11.65;2.92;;;11.60;99.90;;;;;;5057150;28;20051;-68
2022/11/07 04:22:19;;;;;;;11.70;4.35;;;11.60;99.90;;;;;;5073530;28;20044;-68
2022/11/07 04:24:44;;;;;;;12.35;3.38;;;11.60;99.90;;;;;;5056919;28;20401;-68
2022/11/07 04:29:55;;;;;;;11.77;3.35;;;11.60;99.90;;;;;;5073376;28;20040;-67
2022/11/07 04:32:23;;;;;;;8.77;2.92;;;11.60;99.90;;;;;;5056582;28;20074;-68
2022/11/07 04:34:51;;;;;;;9.25;3.13;;;11.60;99.90;;;;;;5072353;28;20047;-68
2022/11/07 04:37:17;;;;;;;8.18;2.97;;;11.60;99.90;;;;;;5069909;28;20029;-68
2022/11/07 04:39:43;;;;;;;12.40;3.50;;;11.60;99.90;;;;;;5053411;28;20045;-68
2022/11/07 04:42:09;;;;;;;7.85;3.00;;;11.60;99.90;;;;;;5069961;28;20048;-68
2022/11/07 04:44:34;;;;;;;9.85;3.45;;;11.60;99.90;;;;;;5051841;28;20040;-68
2022/11/07 04:47:00;;;;;;;11.00;3.20;;;11.60;99.90;;;;;;5053177;28;20037;-68
2022/11/07 04:49:26;;;;;;;12.57;3.72;;;11.60;99.90;;;;;;5053180;28;20041;-67
2022/11/07 04:51:56;;;;;;;7.97;3.42;;;11.60;99.90;;;;;;5053479;28;20045;-68
2022/11/07 04:54:21;;;;;;;5.47;2.70;;;11.60;99.90;;;;;;5036210;28;20497;-68
2022/11/07 04:56:47;;;;;;;7.40;3.28;;;11.60;99.90;;;;;;5053086;28;20044;-68
2022/11/07 04:59:12;;;;;;;12.32;3.55;;;11.70;99.90;;;;;;5052912;28;20127;-68
2022/11/07 05:01:38;;;;;;;10.52;3.72;;;11.60;99.90;;;;;;5052289;28;20037;-68
2022/11/07 05:04:04;;;;;;;10.88;3.97;;;11.60;99.90;;;;;;5068710;28;20493;-68
2022/11/07 05:06:34;;;;;;;11.32;4.05;;;11.60;99.90;;;;;;5052670;28;20044;-68
2022/11/07 05:09:00;;;;;;;10.43;3.33;;;11.60;99.90;;;;;;5052057;28;20575;-68
2022/11/07 05:11:25;;;;;;;8.30;3.90;;;11.70;99.90;;;;;;5051541;28;20120;-68
2022/11/07 05:13:51;;;;;;;10.43;3.78;;;11.70;99.90;;;;;;5051348;28;20041;-68
2022/11/07 05:16:17;;;;;;;9.63;4.38;;;11.60;99.90;;;;;;5051490;28;20079;-68
2022/11/07 05:18:43;;;;;;;8.25;3.22;;;11.60;99.90;;;;;;5052294;28;20037;-68
2022/11/07 05:21:08;;;;;;;12.57;3.97;;;11.60;99.90;;;;;;5050327;28;20041;-68
2022/11/07 05:23:34;;;;;;;12.93;3.83;;;11.60;99.90;;;;;;5050654;28;20538;-68
2022/11/07 05:26:00;;;;;;;11.18;3.58;;;11.60;99.90;;;;;;5051346;28;20037;-68
2022/11/07 05:28:28;;;;;;;10.23;3.78;;;11.60;99.90;;;;;;5052435;28;20128;-68
2022/11/07 05:30:58;;;;;;;10.65;3.63;;;11.60;99.90;;;;;;5068124;28;20040;-68
2022/11/07 05:33:23;;;;;;;13.20;3.90;;;11.70;99.90;;;;;;5052252;28;20132;-68
2022/11/07 05:35:49;;;;;;;11.18;3.25;;;11.70;99.90;;;;;;5068060;28;20552;-68
2022/11/07 05:38:15;;;;;;;11.82;3.60;;;11.60;99.90;;;;;;5067130;28;20481;-68
2022/11/07 05:40:40;;;;;;;9.73;3.28;;;11.60;99.90;;;;;;5051952;28;20496;-68
2022/11/07 05:43:09;;;;;;;11.55;3.35;;;11.60;99.90;;;;;;5067250;28;20040;-68
2022/11/07 05:45:39;;;;;;;8.82;3.08;;;11.70;99.90;;;;;;5048730;28;20037;-68
2022/11/07 05:48:11;;;;;;;8.02;3.92;;;11.70;99.90;;;;;;5034434;28;20037;-68
2022/11/07 05:50:37;;;;;;;10.57;3.63;;;11.70;99.90;;;;;;5034899;28;20546;-68
2022/11/07 05:53:04;;;;;;;6.13;2.75;;;11.60;99.90;;;;;;5034767;28;20052;-68
2022/11/07 05:55:30;;;;;;;11.68;3.85;;;11.60;99.90;;;;;;5067827;28;20087;-68
2022/11/07 05:57:56;;;;;;;9.55;3.97;;;11.70;99.90;;;;;;5051902;28;20037;-69
2022/11/07 06:00:22;;;;;;;10.68;3.30;;;11.60;99.90;;;;;;5033148;28;20032;-68
2022/11/07 06:03:00;;;;;;;12.70;3.88;;;11.70;99.90;;;;;;5050609;28;20057;-68
2022/11/07 06:05:27;;;;;;;9.38;3.30;;;11.70;99.90;;;;;;5050787;28;20067;-68
2022/11/07 06:07:53;;;;;;;8.25;2.85;;;11.60;99.90;;;;;;5034585;28;20085;-68
2022/11/07 06:10:18;;;;;;;10.07;3.58;;;11.70;99.90;;;;;;5050907;28;20072;-67
2022/11/07 06:12:44;;;;;;;10.45;3.25;;;11.80;99.90;;;;;;5051694;28;20481;-68
2022/11/07 06:15:10;;;;;;;10.73;3.60;;;11.80;99.90;;;;;;5034827;28;20370;-68
2022/11/07 06:17:36;;;;;;;8.88;3.20;;;11.70;99.90;;;;;;5050715;28;20040;-68
2022/11/07 06:20:03;;;;;;;8.02;3.72;;;11.70;99.90;;;;;;5066765;28;20040;-68
2022/11/07 06:22:29;;;;;;;10.70;3.35;;;11.70;99.90;;;;;;5050658;28;20124;-68
2022/11/07 06:24:55;;;;;;;9.52;3.22;;;11.70;99.90;;;;;;5051095;28;20045;-68
2022/11/07 06:27:21;;;;;;;9.15;3.72;;;11.60;99.90;;;;;;5036496;28;20051;-68
2022/11/07 06:29:47;;;;;;;10.18;3.50;;;11.60;99.90;;;;;;5072451;28;20078;-68
2022/11/07 06:32:12;;;;;;;11.13;3.63;;;11.60;99.90;;;;;;5071399;28;20043;-68
2022/11/07 06:34:38;;;;;;;11.13;3.70;;;11.60;99.90;;;;;;5053957;28;20029;-68
2022/11/07 06:37:03;;;;;;;11.73;3.10;;;11.70;99.90;;;;;;5054587;28;20041;-68
2022/11/07 06:39:29;;;;;;;14.13;3.45;;;11.70;99.90;;;;;;5038175;28;20035;-68
2022/11/07 06:41:54;;;;;;;7.93;3.30;;;11.70;99.90;;;;;;5038810;28;20090;-68
2022/11/07 06:44:20;;;;;;;8.70;3.17;;;11.70;99.90;;;;;;5052871;28;20041;-68
2022/11/07 06:46:46;;;;;;;9.15;3.13;;;11.70;99.90;;;;;;5060224;28;20068;-68
2022/11/07 06:49:12;;;;;;;8.63;3.08;;;11.60;99.90;;;;;;5045825;28;20041;-68
2022/11/07 06:51:38;;;;;;;11.95;4.32;;;11.70;99.90;;;;;;5053018;28;20048;-68
2022/11/07 06:54:04;;;;;;;7.45;3.20;;;11.70;99.90;;;;;;5043385;28;20037;-67
2022/11/07 06:56:29;;;;;;;9.68;3.70;;;11.70;99.90;;;;;;5032845;28;20129;-68
2022/11/07 06:58:55;;;;;;;10.40;3.50;;;11.60;99.90;;;;;;5053020;28;20055;-67
2022/11/07 07:01:20;;;;;;;11.98;4.40;;;11.60;99.90;;;;;;5054573;28;20060;-67
2022/11/07 07:03:46;;;;;;;11.45;3.45;;;11.60;99.90;;;;;;5061494;28;20056;-67
2022/11/07 07:06:13;;;;;;;12.45;3.88;;;11.70;99.90;;;;;;5054529;28;20045;-67
2022/11/07 07:08:39;;;;;;;13.77;4.85;;;11.70;99.90;;;;;;5047744;28;20033;-67
2022/11/07 07:11:07;;;;;;;13.00;4.43;;;11.60;99.90;;;;;;5057498;28;20070;-67
2022/11/07 07:13:33;;;;;;;11.70;3.92;;;11.50;99.90;;;;;;5070802;28;20472;-67
2022/11/07 07:16:00;;;;;;;10.02;4.07;;;11.60;99.90;;;;;;5057280;28;20060;-67
2022/11/07 07:18:26;;;;;;;12.77;4.20;;;11.50;99.90;;;;;;5052785;28;20073;-67
2022/11/07 07:20:54;;;;;;;13.55;4.45;;;11.50;99.90;;;;;;5057142;28;20064;-67
2022/11/07 07:23:20;;;;;;;9.75;4.38;;;11.50;99.90;;;;;;5053771;28;20041;-67
2022/11/07 07:25:46;;;;;;;11.90;5.30;;;11.50;99.90;;;;;;5069587;28;20420;-67
2022/11/07 07:28:12;;;;;;;12.60;5.47;;;11.50;99.90;;;;;;5047565;28;20041;-67
2022/11/07 07:30:38;;;;;;;13.40;5.20;;;11.50;99.90;;;;;;5042140;28;20041;-67
2022/11/07 07:33:04;;;;;;;18.23;6.80;;;11.50;99.90;;;;;;5043991;28;20044;-67
2022/11/07 07:35:30;;;;;;;12.35;5.10;;;11.50;99.90;;;;;;5036275;28;20379;-67
2022/11/07 07:37:55;;;;;;;13.30;5.07;;;11.50;99.90;;;;;;5051436;28;20123;-68
2022/11/07 07:40:21;;;;;;;13.63;6.38;;;11.50;99.90;;;;;;5070867;28;20408;-68
2022/11/07 07:42:47;;;;;;;13.20;5.15;;;11.50;99.90;;;;;;5051923;28;20047;-68
2022/11/07 07:45:14;;;;;;;12.77;4.72;;;11.60;99.90;;;;;;5053173;28;20128;-67
2022/11/07 07:47:40;;;;;;;13.63;4.93;;;11.60;99.90;;;;;;5035114;28;20486;-68
2022/11/07 07:50:07;;;;;;;11.82;4.95;;;11.60;99.90;;;;;;5044143;28;20041;-67
2022/11/07 07:52:33;;;;;;;14.73;5.05;;;11.60;99.90;;;;;;5059137;28;20041;-67
2022/11/07 07:54:59;;;;;;;13.23;5.38;;;11.70;99.90;;;;;;5041264;28;20495;-68
2022/11/07 07:57:24;;;;;;;12.82;5.38;;;11.70;99.90;;;;;;5052902;28;20037;-68
2022/11/07 07:59:50;;;;;;;12.18;4.95;;;11.70;99.90;;;;;;5017340;28;20049;-68
2022/11/07 08:02:16;;;;;;;12.15;5.00;;;11.70;99.90;;;;;;5016499;28;20029;-68
2022/11/07 08:04:42;;;;;;;11.57;4.70;;;11.60;99.90;;;;;;5022657;28;20721;-68
2022/11/07 08:07:09;;;;;;;13.38;5.63;;;11.50;99.90;;;;;;5052582;28;20087;-68
2022/11/07 08:09:37;;;;;;;14.48;5.32;;;11.60;99.90;;;;;;5036952;28;20044;-68
2022/11/07 08:12:04;;;;;;;14.73;5.65;;;11.50;99.90;;;;;;5053012;28;20037;-68
2022/11/07 08:14:29;;;;;;;13.00;5.13;;;11.60;99.90;;;;;;5054927;28;20037;-68
2022/11/07 08:16:55;;;;;;;12.68;5.10;;;11.60;99.90;;;;;;5070002;28;20060;-68
2022/11/07 08:19:21;;;;;;;13.88;5.03;;;11.60;99.90;;;;;;5051030;28;20067;-68
2022/11/07 08:21:46;;;;;;;13.07;5.03;;;11.60;99.90;;;;;;5053298;28;20126;-68
2022/11/07 08:24:12;;;;;;;12.98;4.95;;;11.80;99.90;;;;;;5053130;28;20048;-68
2022/11/07 08:26:38;;;;;;;12.75;4.90;;;11.60;99.90;;;;;;5048711;28;20521;-68
2022/11/07 08:29:04;;;;;;;16.08;4.68;;;11.60;99.90;;;;;;5053007;28;20443;-67
2022/11/07 08:31:29;;;;;;;13.15;4.90;;;11.70;99.90;;;;;;5052919;28;20048;-67
2022/11/07 08:33:59;;;;;;;11.35;4.82;;;11.70;99.90;;;;;;5052850;28;20090;-67
2022/11/07 08:36:26;;;;;;;10.95;4.65;;;11.70;99.90;;;;;;5068928;28;20115;-67
2022/11/07 08:38:51;;;;;;;15.15;4.35;;;11.60;99.90;;;;;;5053440;28;20033;-67
2022/11/07 08:41:18;;;;;;;13.85;4.80;;;11.70;99.90;;;;;;5051875;28;20555;-67
2022/11/07 08:43:43;;;;;;;11.77;4.40;;;11.80;99.90;;;;;;5052014;28;20124;-68
2022/11/07 08:46:09;;;;;;;11.00;3.92;;;11.80;99.90;;;;;;5068356;28;20434;-68
2022/11/07 08:48:34;;;;;;;13.43;4.93;;;11.80;99.90;;;;;;5037223;28;20032;-68
2022/11/07 08:51:03;;;;;;;12.98;4.65;;;11.80;99.90;;;;;;5051457;28;20049;-67
2022/11/07 08:53:30;;;;;;;15.60;5.15;;;11.90;99.90;;;;;;5051557;28;20095;-67
2022/11/07 08:56:01;;;;;;;12.27;4.13;;;11.90;99.90;;;;;;5052726;28;20124;-68
2022/11/07 08:58:27;;;;;;;11.70;4.53;;;12.00;99.90;;;;;;5049580;28;20090;-67
2022/11/07 09:00:52;;;;;;;10.57;4.07;;;12.00;99.90;;;;;;5060210;28;20037;-68
2022/11/07 09:03:18;;;;;;;11.60;3.72;;;12.10;99.90;;;;;;5050234;28;20053;-67
2022/11/07 09:05:43;;;;;;;12.85;3.97;;;12.10;99.90;;;;;;5036577;28;20041;-68
2022/11/07 09:08:09;;;;;;;13.20;4.93;;;12.10;99.90;;;;;;5034207;28;20049;-67
2022/11/07 09:10:34;;;;;;;12.40;3.92;;;12.10;99.90;;;;;;5034758;28;20140;-68
2022/11/07 09:13:00;;;;;;;13.05;3.85;;;12.10;99.90;;;;;;5033018;28;20049;-68
2022/11/07 09:15:26;;;;;;;13.82;4.30;;;12.10;99.90;;;;;;5034914;28;20477;-68
2022/11/07 09:17:51;;;;;;;12.48;3.90;;;12.20;99.90;;;;;;5052064;28;20041;-67
2022/11/07 09:20:17;;;;;;;15.20;4.30;;;12.20;99.90;;;;;;5050600;28;20037;-70
2022/11/07 09:22:43;;;;;;;10.80;3.92;;;12.20;99.90;;;;;;5067606;28;20049;-70
2022/11/07 09:25:09;;;;;;;11.70;3.53;;;12.20;99.90;;;;;;5034543;28;20118;-68
2022/11/07 09:27:35;;;;;;;9.88;3.80;;;12.20;99.90;;;;;;5042171;28;20045;-67
2022/11/07 09:30:02;;;;;;;11.73;3.65;;;12.30;99.90;;;;;;5035155;28;20056;-67
2022/11/07 09:32:28;;;;;;;11.65;3.47;;;12.30;99.90;;;;;;5035191;28;20081;-67
2022/11/07 09:34:54;;;;;;;14.32;4.25;;;12.40;99.90;;;;;;5052127;28;20059;-68
2022/11/07 09:37:20;;;;;;;10.00;3.55;;;12.30;99.90;;;;;;5051474;28;20037;-67
2022/11/07 09:39:46;;;;;;;13.05;3.60;;;12.40;99.90;;;;;;5035027;28;20546;-68
2022/11/07 09:42:39;;;;;;;10.85;3.15;;;12.30;99.90;;;;;;5031926;28;20087;-67
2022/11/07 09:45:10;;;;;;;12.10;3.92;;;12.40;99.90;;;;;;5032517;28;20413;-68
2022/11/07 09:47:39;;;;;;;12.32;3.92;;;12.40;99.90;;;;;;5037185;28;20036;-68
2022/11/07 09:50:31;;;;;;;14.20;3.08;;;12.30;99.90;;;;;;5035301;28;20037;-68
2022/11/07 09:53:06;;;;;;;12.00;3.03;;;12.40;99.90;;;;;;5065035;28;20203;-67
2022/11/07 09:55:40;;;;;;;10.07;3.55;;;12.40;99.90;;;;;;5034838;28;20123;-67
2022/11/07 09:58:19;;;;;;;10.82;3.30;;;12.40;99.90;;;;;;5051559;28;20037;-67
2022/11/07 10:00:45;;;;;;;11.07;3.60;;;12.40;99.90;;;;;;5051156;28;20033;-67
2022/11/07 10:03:11;;;;;;;10.57;3.22;;;12.30;99.90;;;;;;5051739;28;20048;-68
2022/11/07 10:05:53;;;;;;;14.98;4.75;;;12.40;99.90;;;;;;5051738;28;20084;-68
2022/11/07 10:08:31;;;;;;;10.75;3.40;;;12.40;99.90;;;;;;5051452;28;20044;-67
2022/11/07 10:11:01;;;;;;;10.20;3.65;;;12.40;99.90;;;;;;5034983;28;20071;-68
2022/11/07 10:13:52;;;;;;;10.18;3.28;;;12.50;99.90;;;;;;5034747;28;20547;-68
2022/11/07 10:16:34;;;;;;;13.60;3.83;;;12.50;99.90;;;;;;5051546;28;20043;-68
2022/11/07 10:19:24;;;;;;;9.35;3.30;;;12.50;99.90;;;;;;5035412;28;20037;-68
2022/11/07 10:22:18;;;;;;;13.82;3.33;;;12.50;99.90;;;;;;5035145;28;20123;-68
2022/11/07 10:24:50;;;;;;;11.52;3.38;;;12.50;99.90;;;;;;5051269;28;20041;-67
2022/11/07 10:27:15;;;;;;;;;;;12.60;99.90;;;;;;5051444;28;20037;-68
2022/11/07 10:29:49;;;;;;;8.57;2.38;;;12.60;99.90;;;;;;5034300;28;20464;-68
2022/11/07 10:32:25;;;;;;;14.60;3.70;;;12.70;99.90;;;;;;5062467;28;20100;-70
2022/11/07 10:35:27;;;;;;;11.90;3.47;;;12.60;99.90;;;;;;5050444;28;20036;-78
2022/11/07 10:37:54;;;;;;;9.32;3.05;;;12.70;99.90;;;;;;5032335;28;20037;-81
2022/11/07 10:40:21;;;;;;;10.75;3.33;;;12.80;99.90;;;;;;5035268;28;20120;-72
2022/11/07 10:42:47;;;;;;;12.90;3.92;;;12.80;99.90;;;;;;5049493;28;20045;-68
2022/11/07 10:45:15;;;;;;;12.52;3.78;;;12.80;99.90;;;;;;5047748;28;20425;-68
2022/11/07 10:47:41;;;;;;;21.52;7.65;;;12.90;99.90;;;;;;5049177;28;20049;-68
2022/11/07 10:50:19;;;;;;;9.60;3.72;;;13.00;99.90;;;;;;5050649;28;20099;-68
2022/11/07 10:52:56;;;;;;;14.02;5.18;;;13.00;99.90;;;;;;5033679;28;20037;-68
2022/11/07 10:55:24;;;;;;;11.57;3.65;;;13.00;99.90;;;;;;5049922;28;20476;-68
2022/11/07 10:57:58;;;;;;;8.90;3.50;;;13.10;99.90;;;;;;5050304;28;20444;-68
2022/11/07 11:00:27;;;;;;;12.57;3.67;;;13.10;99.90;;;;;;5050319;28;20037;-68
2022/11/07 11:02:55;;;;;;;11.02;3.50;;;13.10;99.90;;;;;;5032658;28;20497;-68
2022/11/07 11:05:41;;;;;;;12.73;3.72;;;13.10;99.90;;;;;;5037640;28;20044;-69
2022/11/07 11:08:17;;;;;;;11.70;2.97;;;13.10;99.90;;;;;;5047605;28;20086;-68
2022/11/07 11:10:42;;;;;;;9.95;3.47;;;13.20;99.90;;;;;;5050373;28;20048;-69
2022/11/07 11:13:31;;;;;;;10.55;3.17;;;13.20;99.90;;;;;;5050685;28;20033;-69
2022/11/07 11:16:08;;;;;;;13.98;3.70;;;13.30;99.90;;;;;;5035244;28;20052;-69
2022/11/07 11:18:35;;;;;;;11.77;4.10;;;13.30;99.90;;;;;;5037917;28;20040;-68
2022/11/07 11:21:01;;;;;;;14.90;3.38;;;13.30;99.90;;;;;;5053651;28;20037;-69
2022/11/07 11:23:31;;;;;;;11.35;3.70;;;13.40;99.90;;;;;;5057550;28;20535;-69
2022/11/07 11:26:05;;;;;;;11.27;3.63;;;13.40;99.90;;;;;;5039984;28;20079;-68
2022/11/07 11:28:37;;;;;;;7.90;3.15;;;13.50;99.90;;;;;;5045705;28;20068;-68
2022/11/07 11:31:07;;;;;;;13.32;3.00;;;13.50;99.90;;;;;;5070922;28;20037;-69
2022/11/07 11:33:47;;;;;;;9.57;3.33;;;13.50;99.90;;;;;;5053865;28;20037;-68
2022/11/07 11:36:20;;;;;;;12.23;3.70;;;13.50;99.90;;;;;;5056132;28;20036;-69
2022/11/07 11:38:53;;;;;;;9.93;3.88;;;13.50;99.90;;;;;;5047822;28;20041;-69
2022/11/07 11:41:35;;;;;;;11.40;3.30;;;13.40;99.90;;;;;;5035686;28;20033;-69
2022/11/07 11:44:15;;;;;;;11.50;2.95;;;13.50;99.90;;;;;;5033974;28;20497;-69
2022/11/07 11:46:59;;;;;;;12.57;3.30;;;13.50;99.90;;;;;;5065383;28;20060;-69
2022/11/07 11:49:42;;;;;;;14.75;3.42;;;13.50;99.90;;;;;;5070089;28;20179;-69
2022/11/07 11:52:13;;;;;;;;;;;13.60;99.90;;;;;;5052658;28;20060;-69
2022/11/07 11:54:39;;;;;;;14.38;3.47;;;13.50;99.90;;;;;;5026929;28;19962;-69
2022/11/07 11:57:12;;;;;;;10.18;2.85;;;13.50;99.90;;;;;;5052043;28;21370;-69
2022/11/07 11:59:59;;;;;;;10.90;3.08;;;13.60;99.90;;;;;;5052079;28;20387;-69
2022/11/07 12:02:50;;;;;;;11.23;3.33;;;13.60;99.90;;;;;;5067904;28;20134;-69
2022/11/07 12:05:49;;;;;;;12.40;3.03;;;13.70;99.90;;;;;;5051904;28;20511;-69
2022/11/07 12:08:52;;;;;;;8.95;2.60;;;13.70;99.90;;;;;;5048539;28;20044;-69
2022/11/07 12:11:42;;;;;;;10.38;2.78;;;13.70;99.90;;;;;;5052452;28;20082;-69
2022/11/07 12:14:46;;;;;;;10.07;2.83;;;13.70;99.90;;;;;;5048647;28;20136;-69
2022/11/07 12:17:49;;;;;;;10.30;2.80;;;13.80;99.90;;;;;;5017038;28;20099;-69
2022/11/07 12:20:48;;;;;;;11.95;2.40;;;13.90;99.90;;;;;;5017772;28;20044;-69
2022/11/07 12:23:27;;;;;;;9.00;2.10;;;14.00;99.90;;;;;;5052211;28;20045;-69
2022/11/07 12:26:21;;;;;;;14.05;3.00;;;14.00;99.90;;;;;;5048939;28;20033;-69
2022/11/07 12:29:10;;;;;;;11.30;2.60;;;14.00;99.90;;;;;;5050694;28;20051;-69
2022/11/07 12:32:03;;;;;;;8.88;3.00;;;13.90;99.90;;;;;;5026206;28;20041;-69
2022/11/07 12:34:59;;;;;;;11.52;2.65;;;13.90;99.90;;;;;;5016778;28;20052;-69
2022/11/07 12:37:42;;;;;;;9.45;2.72;;;13.90;99.90;;;;;;5041950;28;20052;-69
2022/11/07 12:40:26;;;;;;;7.63;2.35;;;14.00;99.90;;;;;;5053611;28;20430;-69
2022/11/07 12:43:28;;;;;;;9.35;2.97;;;14.00;99.90;;;;;;5068664;28;20515;-69
2022/11/07 12:46:24;;;;;;;10.27;2.77;;;14.10;99.90;;;;;;5070118;28;20087;-69
2022/11/07 12:49:04;;;;;;;11.02;2.97;;;14.00;99.90;;;;;;5045414;28;20299;-69
2022/11/07 12:51:30;;;;;;;9.25;2.72;;;14.10;99.90;;;;;;5016570;28;20124;-69
2022/11/07 12:54:38;;;;;;;11.27;2.80;;;14.10;99.90;;;;;;5043912;28;20464;-69
2022/11/07 12:57:15;;;;;;;9.55;2.95;;;14.20;99.90;;;;;;5035304;28;20036;-69
2022/11/07 12:59:46;;;;;;;8.02;2.97;;;14.10;99.90;;;;;;5052923;28;20051;-69
2022/11/07 13:02:17;;;;;;;12.05;3.10;;;14.10;99.90;;;;;;5053049;28;20032;-69
2022/11/07 13:04:58;;;;;;;11.47;2.60;;;14.10;99.90;;;;;;5046038;28;20045;-69